Time;durP1;ratioP1;P1;durP2;ratioP2;P2;SDS_P1;SDS_P2;PMS_P1;PMS_P2;Temp;Humidity;BMP_temperature;BMP_pressure;BME280_temperature;BME280_humidity;BME280_pressure;Samples;Min_cycle;Max_cycle;Signal;HPM_P1;HPM_P2
2022/06/07 00:02:42;;;;;;;0.30;0.30;;;;;;;17.42;52.56;100813.00;5114749;29;20500;-81
2022/06/07 00:05:18;;;;;;;0.65;0.65;;;;;;;17.37;52.23;100808.88;5101176;29;20048;-81
2022/06/07 00:07:54;;;;;;;0.40;0.40;;;;;;;17.32;52.30;100811.78;5120511;28;20061;-81
2022/06/07 00:10:25;;;;;;;0.30;0.30;;;;;;;17.30;52.70;100813.66;5113433;29;20135;-82
2022/06/07 00:12:56;;;;;;;0.32;0.32;;;;;;;17.26;52.50;100812.97;5138021;28;20027;-81
2022/06/07 00:15:29;;;;;;;0.30;0.30;;;;;;;17.27;52.83;100809.38;5132372;28;20866;-81
2022/06/07 00:18:03;;;;;;;0.50;0.50;;;;;;;17.18;52.92;100807.22;5124207;28;20129;-81
2022/06/07 00:20:38;;;;;;;0.68;0.68;;;;;;;17.17;52.75;100808.16;5117201;28;20409;-81
2022/06/07 00:23:14;;;;;;;0.50;0.50;;;;;;;17.15;52.78;100804.72;5134602;28;20495;-81
2022/06/07 00:25:49;;;;;;;0.40;0.40;;;;;;;17.12;53.15;100803.09;5111392;28;20043;-81
2022/06/07 00:28:21;;;;;;;0.70;0.70;;;;;;;17.13;53.84;100806.63;5091639;29;20626;-81
2022/06/07 00:30:52;;;;;;;0.55;0.55;;;;;;;17.06;53.41;100805.25;5132751;28;20046;-81
2022/06/07 00:33:24;;;;;;;0.50;0.50;;;;;;;17.06;54.61;100810.53;5097181;29;20040;-81
2022/06/07 00:35:55;;;;;;;0.60;0.60;;;;;;;17.05;54.25;100804.38;5115050;28;20584;-81
2022/06/07 00:38:32;;;;;;;0.30;0.30;;;;;;;17.09;54.51;100795.31;5099791;28;20043;-81
2022/06/07 00:41:08;;;;;;;1.15;0.63;;;;;;;17.02;54.40;100798.38;5131327;28;20075;-81
2022/06/07 00:43:43;;;;;;;0.40;0.40;;;;;;;16.98;54.08;100803.81;5130177;28;20038;-81
2022/06/07 00:46:16;;;;;;;0.30;0.30;;;;;;;16.98;54.22;100803.81;5132572;28;20042;-81
2022/06/07 00:48:46;;;;;;;3.40;0.53;;;;;;;16.93;54.09;100799.72;5121031;28;20027;-81
2022/06/07 00:51:17;;;;;;;0.85;0.40;;;;;;;16.95;54.37;100804.00;5103766;28;20045;-80
2022/06/07 00:53:48;;;;;;;0.38;0.38;;;;;;;16.92;54.00;100797.97;5117880;28;20059;-80
2022/06/07 00:56:20;;;;;;;0.35;0.35;;;;;;;16.88;54.17;100797.28;5155634;28;20045;-81
2022/06/07 00:58:51;;;;;;;0.30;0.30;;;;;;;16.88;54.23;100801.72;5118229;28;20591;-80
2022/06/07 01:01:21;;;;;;;0.73;0.73;;;;;;;16.82;54.02;100797.56;5120358;28;20043;-81
2022/06/07 01:03:52;;;;;;;1.73;0.98;;;;;;;16.80;54.02;100792.38;5124952;28;20113;-80
2022/06/07 01:12:04;;;;;;;0.43;0.43;;;;;;;16.75;53.98;100796.19;5120090;28;20637;-81
2022/06/07 01:14:37;;;;;;;0.40;0.40;;;;;;;16.75;54.21;100788.25;5124330;28;20142;-81
2022/06/07 01:17:11;;;;;;;0.30;0.30;;;;;;;16.70;54.22;100793.78;5139591;28;20691;-81
2022/06/07 01:19:47;;;;;;;0.55;0.55;;;;;;;16.67;54.04;100789.50;5146944;28;20028;-81
2022/06/07 01:22:19;;;;;;;0.65;0.65;;;;;;;16.71;55.46;100792.84;5148466;28;20243;-81
2022/06/07 01:24:56;;;;;;;0.30;0.30;;;;;;;16.59;55.89;100783.75;5137219;28;20047;-81
2022/06/07 01:27:27;;;;;;;0.25;0.25;;;;;;;16.59;54.81;100786.38;5114284;28;20050;-81
2022/06/07 01:29:58;;;;;;;0.30;0.30;;;;;;;16.59;54.87;100786.38;5117364;28;20408;-81
2022/06/07 01:32:29;;;;;;;0.55;0.55;;;;;;;16.62;55.00;100786.25;5107548;28;20479;-81
2022/06/07 01:34:59;;;;;;;1.27;0.90;;;;;;;16.50;55.57;100781.56;5099296;28;20102;-81
2022/06/07 01:37:31;;;;;;;0.30;0.30;;;;;;;16.52;55.48;100780.56;5131342;28;20118;-80
2022/06/07 01:42:54;;;;;;;0.32;0.32;;;;;;;16.51;55.35;100777.97;5120087;28;20027;-80
2022/06/07 01:45:24;;;;;;;0.85;0.85;;;;;;;16.52;54.84;100774.41;5134811;28;20081;-80
2022/06/07 01:47:55;;;;;;;1.33;0.40;;;;;;;16.47;55.17;100771.13;5098908;28;20042;-80
2022/06/07 01:50:26;;;;;;;0.45;0.45;;;;;;;16.52;55.82;100769.97;5142502;28;20578;-80
2022/06/07 01:53:02;;;;;;;0.70;0.70;;;;;;;16.45;54.72;100770.34;5128071;28;20043;-81
2022/06/07 01:55:33;;;;;;;0.88;0.68;;;;;;;16.42;54.73;100770.50;5112309;28;20094;-81
2022/06/07 01:58:04;;;;;;;0.45;0.45;;;;;;;16.39;54.63;100766.22;5120003;28;20066;-81
2022/06/07 02:00:40;;;;;;;0.70;0.70;;;;;;;16.34;55.57;100760.31;5124236;28;20074;-81
2022/06/07 02:03:14;;;;;;;0.40;0.40;;;;;;;16.35;54.58;100762.03;5135182;28;20693;-81
2022/06/07 02:06:13;;;;;;;0.32;0.32;;;;;;;16.33;55.18;100756.78;5132046;28;20066;-81
2022/06/07 02:08:44;;;;;;;0.30;0.30;;;;;;;16.30;54.87;100749.03;5121015;28;20467;-81
2022/06/07 02:11:20;;;;;;;0.75;0.60;;;;;;;16.37;55.76;100749.53;5134639;28;20046;-81
2022/06/07 02:13:52;;;;;;;0.93;0.93;;;;;;;16.25;56.04;100751.03;5141498;28;20428;-81
2022/06/07 02:16:23;;;;;;;0.50;0.50;;;;;;;16.26;56.18;100750.09;5131276;28;20078;-81
2022/06/07 02:18:55;;;;;;;0.50;0.50;;;;;;;16.09;57.76;100747.44;5094594;28;20050;-81
2022/06/07 02:21:27;;;;;;;0.60;0.60;;;;;;;16.13;55.93;100749.84;5097640;29;20039;-81
2022/06/07 02:23:58;;;;;;;0.30;0.30;;;;;;;16.11;55.55;100745.56;5135670;28;20033;-81
2022/06/07 02:26:35;;;;;;;0.63;0.63;;;;;;;16.19;55.43;100751.34;5125075;28;20066;-81
2022/06/07 02:29:30;;;;;;;1.48;0.68;;;;;;;16.19;55.33;100746.06;5098917;28;20054;-81
2022/06/07 02:32:11;;;;;;;1.95;1.40;;;;;;;16.23;55.35;100749.41;5132530;28;20070;-81
2022/06/07 02:34:47;;;;;;;0.30;0.30;;;;;;;16.13;55.35;100752.50;5122674;28;20547;-81
2022/06/07 02:37:18;;;;;;;1.25;1.05;;;;;;;16.17;55.26;100743.50;5122614;28;20043;-81
2022/06/07 02:39:50;;;;;;;0.32;0.32;;;;;;;16.18;55.08;100746.97;5139925;28;20033;-81
2022/06/07 02:42:24;;;;;;;0.30;0.30;;;;;;;16.17;55.39;100751.44;5140467;28;20385;-81
2022/06/07 02:44:55;;;;;;;0.85;0.85;;;;;;;16.11;56.74;100748.22;5124846;28;20119;-81
2022/06/07 02:47:30;;;;;;;0.30;0.30;;;;;;;16.14;55.13;100748.94;5110835;28;20149;-80
2022/06/07 02:50:01;;;;;;;2.35;1.42;;;;;;;16.15;55.02;100740.06;5109999;28;20550;-80
2022/06/07 02:52:32;;;;;;;0.43;0.43;;;;;;;16.17;55.19;100748.78;5125551;28;20047;-80
2022/06/07 02:55:04;;;;;;;0.30;0.30;;;;;;;16.13;54.83;100741.91;5104270;28;20678;-80
2022/06/07 02:57:34;;;;;;;0.40;0.40;;;;;;;16.09;54.89;100742.16;5136933;28;20050;-80
2022/06/07 03:00:18;;;;;;;0.47;0.47;;;;;;;16.05;54.94;100742.31;5132914;28;20027;-80
2022/06/07 03:02:48;;;;;;;0.65;0.47;;;;;;;16.07;55.02;100744.88;5107421;28;20019;-80
2022/06/07 03:05:19;;;;;;;0.35;0.35;;;;;;;16.04;55.47;100740.59;5098406;29;20091;-81
2022/06/07 03:07:50;;;;;;;0.30;0.30;;;;;;;15.99;54.97;100742.59;5116388;28;20075;-80
2022/06/07 03:10:22;;;;;;;0.30;0.30;;;;;;;16.00;55.00;100744.31;5137960;28;20042;-81
2022/06/07 03:12:53;;;;;;;0.70;0.70;;;;;;;15.96;54.72;100737.47;5144122;28;20034;-80
2022/06/07 03:15:24;;;;;;;0.30;0.30;;;;;;;15.97;54.74;100738.31;5124664;29;20467;-80
2022/06/07 03:17:55;;;;;;;0.38;0.38;;;;;;;15.97;54.64;100746.25;5115302;28;20041;-80
2022/06/07 03:20:26;;;;;;;0.95;0.40;;;;;;;15.93;54.68;100745.56;5139783;28;20058;-80
2022/06/07 03:22:56;;;;;;;0.20;0.20;;;;;;;15.93;54.49;100742.06;5121520;28;20118;-80
2022/06/07 03:25:27;;;;;;;0.55;0.55;;;;;;;15.93;54.69;100742.06;5135664;28;20106;-80
2022/06/07 03:27:59;;;;;;;0.50;0.50;;;;;;;15.90;54.73;100743.06;5115780;28;20090;-80
2022/06/07 03:30:30;;;;;;;0.50;0.50;;;;;;;15.88;54.75;100744.94;5126949;28;20280;-81
2022/06/07 03:33:01;;;;;;;0.38;0.38;;;;;;;15.85;54.48;100740.66;5159737;28;20034;-80
2022/06/07 03:35:34;;;;;;;0.30;0.30;;;;;;;15.82;54.56;100750.50;5157776;28;20035;-81
2022/06/07 03:38:08;;;;;;;0.70;0.70;;;;;;;15.83;54.71;100754.84;5139567;28;20026;-81
2022/06/07 03:40:45;;;;;;;0.52;0.43;;;;;;;15.80;54.84;100750.56;5118445;28;20047;-81
2022/06/07 03:43:16;;;;;;;0.30;0.30;;;;;;;15.75;54.57;100752.56;5110015;29;20077;-81
2022/06/07 03:45:47;;;;;;;0.50;0.50;;;;;;;15.75;54.54;100752.56;5126270;28;20519;-80
2022/06/07 03:48:20;;;;;;;3.13;0.55;;;;;;;15.76;54.94;100764.00;5137996;28;20038;-81
2022/06/07 03:50:53;;;;;;;0.40;0.40;;;;;;;15.76;54.62;100779.88;5144008;28;20099;-80
2022/06/07 03:53:24;;;;;;;0.43;0.43;;;;;;;15.74;54.75;100762.28;5130281;28;20110;-81
2022/06/07 03:55:57;;;;;;;;;;;;;;;15.71;54.88;100765.09;5113520;28;20050;-81
2022/06/07 03:58:27;;;;;;;0.30;0.30;;;;;;;15.70;54.99;100762.53;5125359;28;19914;-81
2022/06/07 04:01:04;;;;;;;;;;;;;;;15.67;54.82;100766.16;5140931;28;20089;-81
2022/06/07 04:03:37;;;;;;;0.28;0.28;;;;;;;15.66;54.79;100774.19;5145814;28;19913;-81
2022/06/07 04:06:25;;;;;;;0.38;0.38;;;;;;;15.63;54.99;100764.59;5144403;28;20550;-81
2022/06/07 04:08:57;;;;;;;0.75;0.65;;;;;;;15.65;54.62;100767.16;5109922;28;20217;-81
2022/06/07 04:11:28;;;;;;;0.75;0.75;;;;;;;15.65;54.58;100767.16;5103651;28;20451;-81
2022/06/07 04:13:59;;;;;;;0.30;0.30;;;;;;;15.63;54.84;100776.94;5137402;28;20049;-81
2022/06/07 04:16:31;;;;;;;0.20;0.20;;;;;;;15.63;55.31;100772.53;5110024;28;20053;-81
2022/06/07 04:19:08;;;;;;;11.75;0.57;;;;;;;15.62;55.40;100773.47;5119063;28;20047;-82
2022/06/07 04:21:41;;;;;;;0.30;0.30;;;;;;;15.60;55.10;100770.03;5134248;28;20038;-81
2022/06/07 04:24:11;;;;;;;0.30;0.30;;;;;;;15.65;55.38;100772.44;5125669;28;20035;-81
2022/06/07 04:26:44;;;;;;;0.20;0.20;;;;;;;15.61;55.32;100774.38;5117831;28;20125;-82
2022/06/07 04:29:15;;;;;;;0.40;0.40;;;;;;;15.59;55.46;100773.59;5133749;28;20031;-81
2022/06/07 04:31:46;;;;;;;0.30;0.30;;;;;;;15.61;55.48;100770.91;5117978;28;20118;-81
2022/06/07 04:34:18;;;;;;;0.30;0.30;;;;;;;15.63;55.60;100774.31;5143446;28;20268;-81
2022/06/07 04:36:49;;;;;;;0.45;0.45;;;;;;;15.64;55.56;100768.97;5118006;28;20067;-81
2022/06/07 04:39:19;;;;;;;0.30;0.30;;;;;;;15.69;55.81;100768.75;5119663;28;20543;-82
2022/06/07 04:41:50;;;;;;;0.45;0.45;;;;;;;15.71;56.17;100773.03;5123998;28;20062;-82
2022/06/07 04:44:23;;;;;;;0.40;0.40;;;;;;;15.64;56.16;100776.91;5142335;28;20413;-82
2022/06/07 04:46:54;;;;;;;0.40;0.40;;;;;;;15.71;56.13;100770.38;5104534;28;20047;-80
2022/06/07 04:49:28;;;;;;;0.30;0.30;;;;;;;15.68;56.47;100767.88;5104146;28;20558;-81
2022/06/07 04:51:59;;;;;;;0.70;0.70;;;;;;;15.69;57.01;100774.88;5123464;28;20056;-81
2022/06/07 04:54:30;;;;;;;0.30;0.30;;;;;;;15.63;58.20;100769.91;5139729;28;20030;-81
2022/06/07 04:57:00;;;;;;;0.30;0.30;;;;;;;15.71;57.78;100774.81;5135482;28;20121;-81
2022/06/07 04:59:31;;;;;;;0.65;0.50;;;;;;;15.64;56.90;100766.31;5101167;29;20043;-81
2022/06/07 05:02:02;;;;;;;0.28;0.28;;;;;;;15.76;56.93;100778.09;5156375;28;20125;-81
2022/06/07 05:04:32;;;;;;;1.42;1.13;;;;;;;15.72;56.96;100777.41;5114240;28;20575;-81
2022/06/07 05:07:05;;;;;;;2.85;1.20;;;;;;;15.68;58.48;100773.16;5101382;28;20114;-81
2022/06/07 05:09:36;;;;;;;0.20;0.20;;;;;;;15.72;57.63;100779.16;5102979;28;20103;-81
2022/06/07 05:12:08;;;;;;;0.28;0.28;;;;;;;15.69;58.34;100776.69;5107025;28;20062;-81
2022/06/07 05:14:39;;;;;;;0.85;0.75;;;;;;;15.75;57.95;100784.31;5123870;28;20126;-81
2022/06/07 05:17:09;;;;;;;0.30;0.30;;;;;;;15.73;57.76;100783.53;5125559;28;20125;-80
2022/06/07 05:19:40;;;;;;;0.20;0.20;;;;;;;15.77;56.81;100776.31;5117768;28;20062;-81
2022/06/07 05:22:11;;;;;;;0.40;0.40;;;;;;;15.83;57.52;100781.28;5116799;28;20035;-81
2022/06/07 05:24:41;;;;;;;0.30;0.30;;;;;;;15.52;59.58;100785.41;5125371;28;20043;-82
2022/06/07 05:27:16;;;;;;;0.40;0.40;;;;;;;15.58;57.79;100782.47;5094312;28;20031;-81
2022/06/07 05:29:50;;;;;;;0.52;0.47;;;;;;;15.65;57.62;100783.91;5111764;28;20067;-81
2022/06/07 05:32:21;;;;;;;1.05;0.43;;;;;;;15.65;58.06;100778.63;5128342;28;20041;-81
2022/06/07 05:34:55;;;;;;;1.58;0.50;;;;;;;15.50;59.72;100790.78;5124832;28;20058;-81
2022/06/07 05:37:26;;;;;;;0.30;0.30;;;;;;;15.53;59.69;100788.00;5126593;28;20035;-81
2022/06/07 05:40:00;;;;;;;0.40;0.40;;;;;;;15.57;59.72;100781.63;5126638;28;20052;-81
2022/06/07 05:42:37;;;;;;;0.75;0.75;;;;;;;15.53;60.64;100785.34;5113886;28;20561;-81
2022/06/07 05:45:09;;;;;;;0.40;0.40;;;;;;;15.54;60.70;100791.47;5128965;28;20042;-81
2022/06/07 05:47:41;;;;;;;2.53;1.02;;;;;;;15.61;59.40;100794.69;5115511;28;20062;-81
2022/06/07 05:50:15;;;;;;;0.32;0.32;;;;;;;15.64;59.29;100792.78;5103819;28;20109;-81
2022/06/07 05:52:48;;;;;;;0.30;0.30;;;;;;;15.71;59.11;100795.97;5107236;28;20034;-81
2022/06/07 05:55:18;;;;;;;0.30;0.30;;;;;;;15.66;59.69;100801.47;5140435;28;20053;-81
2022/06/07 05:57:49;;;;;;;0.45;0.45;;;;;;;15.86;59.13;100791.78;5131518;28;20027;-81
2022/06/07 06:00:24;;;;;;;2.03;0.90;;;;;;;15.74;60.30;100791.38;5140157;28;20049;-81
2022/06/07 06:02:55;;;;;;;0.30;0.30;;;;;;;15.82;59.86;100790.19;5099779;28;20029;-80
2022/06/07 06:05:25;;;;;;;0.40;0.40;;;;;;;15.74;60.40;100796.66;5138018;28;20038;-80
2022/06/07 06:10:50;;;;;;;1.02;0.52;;;;;;;15.80;60.65;100792.88;5137443;28;20050;-80
2022/06/07 06:13:21;;;;;;;1.45;0.73;;;;;;;15.86;60.14;100791.78;5108586;28;20031;-80
2022/06/07 06:16:00;;;;;;;0.20;0.20;;;;;;;15.86;60.13;100786.47;5117535;28;20122;-81
2022/06/07 06:18:32;;;;;;;0.30;0.30;;;;;;;15.96;59.93;100790.41;5113131;28;20032;-81
2022/06/07 06:21:10;;;;;;;1.60;0.40;;;;;;;15.98;60.42;100791.19;5151310;28;20116;-80
2022/06/07 06:23:41;;;;;;;0.45;0.45;;;;;;;16.04;59.55;100805.88;5099245;28;20114;-81
2022/06/07 06:26:14;;;;;;;0.95;0.95;;;;;;;16.05;59.78;100797.91;5102567;28;20127;-81
2022/06/07 06:28:50;;;;;;;0.30;0.30;;;;;;;16.10;60.05;100795.03;5138646;28;20027;-80
2022/06/07 06:31:24;;;;;;;0.30;0.30;;;;;;;16.16;59.55;100791.19;5118205;28;20044;-81
2022/06/07 06:33:55;;;;;;;0.40;0.40;;;;;;;16.14;59.42;100796.56;5159010;28;20034;-81
2022/06/07 06:36:27;;;;;;;0.30;0.30;;;;;;;16.17;59.25;100792.91;5117251;28;20038;-81
2022/06/07 06:38:58;;;;;;;0.20;0.20;;;;;;;16.25;59.47;100787.25;5108551;28;20038;-81
2022/06/07 06:41:30;;;;;;;0.40;0.40;;;;;;;16.33;59.67;100791.22;5138336;28;20253;-81
2022/06/07 06:44:02;;;;;;;0.30;0.30;;;;;;;16.36;59.19;100793.72;5126463;28;20038;-80
2022/06/07 06:46:35;;;;;;;0.73;0.43;;;;;;;16.31;59.01;100798.41;5122910;28;20625;-81
2022/06/07 06:49:07;;;;;;;;;;;;;;;16.29;58.79;100789.66;5138998;28;20087;-81
2022/06/07 06:51:37;;;;;;;0.30;0.30;;;;;;;16.34;58.98;100797.38;5125318;28;19922;-81
2022/06/07 06:54:12;;;;;;;0.20;0.20;;;;;;;16.39;59.28;100802.44;5132861;28;20042;-81
2022/06/07 06:56:44;;;;;;;0.50;0.50;;;;;;;16.42;58.81;100795.22;5124528;28;20058;-81
2022/06/07 06:59:15;;;;;;;0.20;0.20;;;;;;;16.46;59.06;100795.91;5136064;28;20034;-80
2022/06/07 07:01:46;;;;;;;0.20;0.20;;;;;;;16.46;58.96;100795.91;5111217;28;20556;-81
2022/06/07 07:04:18;;;;;;;0.20;0.20;;;;;;;16.47;59.16;100801.13;5159482;28;20039;-81
2022/06/07 07:06:50;;;;;;;0.20;0.20;;;;;;;16.58;59.42;100800.56;5140375;28;20090;-81
2022/06/07 07:09:26;;;;;;;0.38;0.38;;;;;;;16.61;58.18;100794.28;5117260;28;20027;-80
2022/06/07 07:11:57;;;;;;;1.02;0.80;;;;;;;16.59;57.59;100799.63;5140614;28;20046;-82
2022/06/07 07:14:31;;;;;;;0.22;0.22;;;;;;;16.64;57.44;100800.28;5118477;28;20058;-81
2022/06/07 07:17:10;;;;;;;13.57;1.92;;;;;;;16.60;56.92;100801.34;5132798;28;20043;-81
2022/06/07 07:19:41;;;;;;;0.30;0.30;;;;;;;16.59;56.69;100796.97;5132201;28;20031;-81
2022/06/07 07:22:11;;;;;;;0.60;0.60;;;;;;;16.62;56.54;100791.53;5140142;28;20054;-81
2022/06/07 07:24:42;;;;;;;0.65;0.65;;;;;;;16.61;56.73;100804.88;5134318;28;20411;-80
2022/06/07 07:27:13;;;;;;;0.52;0.52;;;;;;;16.58;56.30;100797.91;5092794;28;20377;-81
2022/06/07 07:29:46;;;;;;;0.35;0.35;;;;;;;16.53;56.80;100792.84;5139940;28;20070;-81
2022/06/07 07:32:19;;;;;;;0.20;0.20;;;;;;;16.68;56.76;100796.50;5096182;28;20126;-81
2022/06/07 07:34:50;;;;;;;0.45;0.45;;;;;;;16.61;57.14;100794.28;5133201;28;20048;-81
2022/06/07 07:37:24;;;;;;;0.30;0.30;;;;;;;16.71;56.37;100794.66;5116893;28;20066;-81
2022/06/07 07:39:55;;;;;;;1.00;0.73;;;;;;;16.69;56.43;100797.38;5144675;28;20031;-80
2022/06/07 07:42:25;;;;;;;0.30;0.30;;;;;;;16.70;55.78;100799.06;5115974;28;20019;-81
2022/06/07 07:44:56;;;;;;;0.80;0.80;;;;;;;16.68;56.41;100793.88;5162551;28;20474;-81
2022/06/07 07:47:29;;;;;;;0.30;0.30;;;;;;;16.74;56.16;100787.41;5139470;28;20141;-80
2022/06/07 07:50:00;;;;;;;;;;;;;;;16.77;56.49;100783.72;5143819;28;20110;-81
2022/06/07 07:52:31;;;;;;;3.30;0.50;;;;;;;16.89;56.29;100784.88;5120419;28;19918;-81
2022/06/07 07:55:08;;;;;;;0.30;0.30;;;;;;;16.83;54.94;100786.06;5125134;28;20041;-80
2022/06/07 07:57:39;;;;;;;0.30;0.30;;;;;;;16.94;55.64;100785.53;5105250;28;20031;-81
2022/06/07 08:00:10;;;;;;;0.65;0.65;;;;;;;16.95;55.89;100788.09;5116327;28;20030;-81
2022/06/07 08:02:47;;;;;;;0.20;0.20;;;;;;;17.04;55.65;100789.41;5118883;28;20030;-81
2022/06/07 08:05:18;;;;;;;2.05;0.52;;;;;;;17.12;55.55;100784.53;5126162;28;20088;-81
2022/06/07 08:07:48;;;;;;;0.40;0.40;;;;;;;17.16;53.99;100785.22;5131561;28;20554;-81
2022/06/07 08:10:19;;;;;;;0.30;0.30;;;;;;;17.15;53.90;100783.50;5107322;28;20051;-80
2022/06/07 08:12:51;;;;;;;0.65;0.63;;;;;;;17.19;53.44;100789.53;5108915;28;20077;-80
2022/06/07 08:15:23;;;;;;;0.20;0.20;;;;;;;17.23;54.20;100791.06;5144256;28;20043;-80
2022/06/07 08:17:54;;;;;;;17.83;2.22;;;;;;;17.25;52.59;100790.03;5117616;28;20027;-80
2022/06/07 08:20:25;;;;;;;0.45;0.45;;;;;;;17.18;52.98;100788.66;5123817;28;20157;-80
2022/06/07 08:22:56;;;;;;;0.50;0.50;;;;;;;17.26;53.58;100786.44;5121823;28;20027;-81
2022/06/07 08:25:27;;;;;;;0.25;0.25;;;;;;;17.28;53.58;100781.94;5113311;29;20192;-81
2022/06/07 08:28:03;;;;;;;0.32;0.32;;;;;;;17.27;53.65;100782.88;5137143;28;20047;-80
2022/06/07 08:30:37;;;;;;;0.28;0.28;;;;;;;17.31;53.83;100788.84;5131770;28;20158;-80
2022/06/07 08:39:03;;;;;;;0.40;0.40;;;;;;;17.46;53.77;100771.25;5137590;28;20558;-81
2022/06/07 08:41:59;;;;;;;0.30;0.30;;;;;;;17.53;53.10;100771.75;5103471;28;20495;-81
2022/06/07 08:44:40;;;;;;;0.40;0.40;;;;;;;17.56;53.54;100767.13;5110913;29;20258;-80
2022/06/07 08:47:24;;;;;;;0.20;0.20;;;;;;;17.60;53.54;100763.38;5119750;28;20075;-80
2022/06/07 08:50:03;;;;;;;0.35;0.35;;;;;;;17.67;53.72;100766.56;5137663;28;20050;-81
2022/06/07 08:52:44;;;;;;;0.60;0.60;;;;;;;17.78;54.20;100771.25;5159574;28;20031;-81
2022/06/07 08:55:24;;;;;;;0.20;0.20;;;;;;;17.81;53.86;100767.56;5142708;28;20050;-80
2022/06/07 08:58:00;;;;;;;0.40;0.40;;;;;;;17.88;53.64;100772.44;5100266;28;20042;-81
2022/06/07 09:00:32;;;;;;;0.30;0.30;;;;;;;17.91;53.43;100764.28;5139608;28;20101;-81
2022/06/07 09:03:24;;;;;;;0.43;0.43;;;;;;;18.01;53.34;100766.44;5123497;28;20031;-81
2022/06/07 09:05:58;;;;;;;0.20;0.20;;;;;;;18.08;53.29;100773.97;5118715;28;20793;-81
2022/06/07 09:08:38;;;;;;;0.20;0.20;;;;;;;18.14;53.85;100767.44;5102435;28;20047;-81
2022/06/07 09:14:18;;;;;;;0.20;0.20;;;;;;;18.38;54.05;100765.16;5153781;28;20062;-81
2022/06/07 09:16:49;;;;;;;0.20;0.20;;;;;;;18.47;53.78;100765.56;5097656;28;20035;-81
2022/06/07 09:19:26;;;;;;;0.30;0.30;;;;;;;18.54;54.16;100761.56;5117096;29;20665;-81
2022/06/07 09:22:01;;;;;;;0.30;0.30;;;;;;;18.61;53.47;100762.91;5137996;28;20043;-81
2022/06/07 09:24:42;;;;;;;0.57;0.57;;;;;;;18.77;53.11;100754.00;5109442;29;20078;-81
2022/06/07 09:27:18;;;;;;;0.22;0.22;;;;;;;18.80;52.56;100751.16;5133869;28;20047;-81
2022/06/07 09:29:54;;;;;;;0.20;0.20;;;;;;;18.80;51.85;100752.00;5126149;28;20051;-80
2022/06/07 09:32:31;;;;;;;0.20;0.20;;;;;;;18.70;50.76;100751.72;5123813;28;20039;-81
2022/06/07 09:35:20;;;;;;;0.30;0.30;;;;;;;18.80;50.93;100743.19;5102626;28;20132;-81
2022/06/07 09:38:16;;;;;;;0.20;0.20;;;;;;;18.90;51.17;100740.81;5129204;28;20031;-81
2022/06/07 09:41:01;;;;;;;0.20;0.20;;;;;;;18.90;51.41;100740.81;5112842;28;20057;-81
2022/06/07 09:43:42;;;;;;;0.20;0.20;;;;;;;19.03;51.72;100744.47;5110031;29;20031;-81
2022/06/07 09:46:24;;;;;;;0.20;0.20;;;;;;;19.08;50.86;100741.53;5133718;28;20043;-81
2022/06/07 09:48:55;;;;;;;0.50;0.50;;;;;;;19.10;50.94;100736.94;5124184;28;20169;-82
2022/06/07 09:51:35;;;;;;;0.47;0.47;;;;;;;19.11;50.35;100736.88;5119317;28;20129;-83
2022/06/07 09:54:21;;;;;;;3.35;1.55;;;;;;;19.24;51.04;100738.75;5120260;28;20035;-82
2022/06/07 09:57:01;;;;;;;0.20;0.20;;;;;;;19.38;51.45;100732.53;5141398;28;20126;-82
2022/06/07 09:59:56;;;;;;;0.30;0.30;;;;;;;19.42;51.29;100732.25;5132179;28;20093;-82
2022/06/07 10:02:39;;;;;;;0.35;0.35;;;;;;;19.53;50.29;100730.72;5123103;28;20039;-81
2022/06/07 10:05:15;;;;;;;0.40;0.40;;;;;;;19.63;50.71;100739.78;5099904;28;20032;-80
2022/06/07 10:08:17;;;;;;;0.20;0.20;;;;;;;19.61;50.23;100731.06;5141767;28;20062;-85
2022/06/07 10:11:06;;;;;;;0.63;0.63;;;;;;;19.69;51.18;100734.09;5109887;28;20051;-81
2022/06/07 10:13:52;;;;;;;0.10;0.10;;;;;;;19.74;50.68;100731.13;5109922;28;20039;-83
2022/06/07 10:16:58;;;;;;;0.40;0.40;;;;;;;19.72;50.63;100730.38;5138737;28;20043;-82
2022/06/07 10:19:52;;;;;;;0.20;0.20;;;;;;;19.79;51.18;100729.00;5149781;28;20030;-83
2022/06/07 10:22:52;;;;;;;0.63;0.47;;;;;;;19.80;50.56;100736.88;5126917;28;20324;-82
2022/06/07 10:25:35;;;;;;;0.20;0.20;;;;;;;19.97;50.66;100727.81;5081185;28;20170;-83
2022/06/07 10:28:21;;;;;;;0.20;0.20;;;;;;;20.01;50.48;100724.94;5132381;28;20490;-81
2022/06/07 10:31:03;;;;;;;0.45;0.45;;;;;;;20.06;50.10;100710.34;5125925;28;20409;-80
2022/06/07 10:34:00;;;;;;;0.30;0.30;;;;;;;20.14;50.96;100715.19;5110210;28;20105;-81
2022/06/07 10:37:08;;;;;;;0.30;0.30;;;;;;;20.28;50.45;100719.59;5128797;28;20492;-81
2022/06/07 10:40:01;;;;;;;0.20;0.20;;;;;;;20.27;49.79;100715.22;5132405;28;20031;-81
2022/06/07 10:42:43;;;;;;;0.20;0.20;;;;;;;20.33;49.68;100713.94;5142908;28;20573;-82
2022/06/07 10:45:26;;;;;;;3.22;1.17;;;;;;;20.28;49.51;100706.25;5161002;28;20031;-81
2022/06/07 10:48:21;;;;;;;0.25;0.25;;;;;;;20.35;49.74;100712.00;5142412;28;20030;-81
2022/06/07 10:54:12;;;;;;;0.20;0.20;;;;;;;20.56;49.46;100704.34;5133452;28;20050;-81
2022/06/07 10:56:55;;;;;;;0.40;0.40;;;;;;;20.72;50.03;100714.78;5139048;28;20989;-82
2022/06/07 10:59:27;;;;;;;0.40;0.40;;;;;;;20.71;49.33;100708.59;5126572;28;20539;-79
2022/06/07 11:02:11;;;;;;;0.50;0.50;;;;;;;20.74;49.37;100697.75;5138521;28;20038;-81
2022/06/07 11:11:12;;;;;;;0.50;0.50;;;;;;;21.00;49.37;100697.72;5147729;28;20046;-81
2022/06/07 11:14:02;;;;;;;0.20;0.20;;;;;;;21.06;49.20;100696.44;5144961;28;20701;-83
2022/06/07 11:16:59;;;;;;;0.30;0.30;;;;;;;21.18;49.12;100689.38;5105620;28;20043;-82
2022/06/07 11:19:32;;;;;;;1.25;1.15;;;;;;;21.21;48.63;100695.31;5147242;28;20129;-84
2022/06/07 11:22:06;;;;;;;0.20;0.20;;;;;;;21.18;48.57;100694.69;5142861;28;20538;-81
2022/06/07 11:24:58;;;;;;;0.28;0.28;;;;;;;21.31;49.11;100695.50;5121528;28;20047;-84
2022/06/07 11:27:32;;;;;;;0.50;0.50;;;;;;;21.37;49.68;100697.72;5115292;28;20055;-86
2022/06/07 11:30:37;;;;;;;0.43;0.43;;;;;;;21.27;49.08;100696.69;5130944;28;20114;-85
2022/06/07 11:33:29;;;;;;;0.25;0.25;;;;;;;21.16;50.25;100691.28;5133243;28;20046;-82
2022/06/07 11:36:12;;;;;;;0.30;0.30;;;;;;;21.25;49.56;100706.63;5129251;28;20039;-80
2022/06/07 11:38:57;;;;;;;0.22;0.22;;;;;;;21.28;49.96;100697.53;5132481;28;20034;-80
2022/06/07 11:41:37;;;;;;;0.30;0.30;;;;;;;20.92;50.09;100705.41;5108758;29;20038;-82
2022/06/07 11:44:08;;;;;;;0.30;0.30;;;;;;;20.69;51.13;100702.53;5103964;28;20073;-80
2022/06/07 11:46:40;;;;;;;0.20;0.20;;;;;;;20.62;51.54;100698.56;5127650;28;20071;-81
2022/06/07 11:49:20;;;;;;;0.30;0.30;;;;;;;20.81;51.45;100702.66;5143430;28;20034;-82
2022/06/07 11:52:11;;;;;;;0.30;0.30;;;;;;;20.58;52.59;100705.09;5109535;28;20040;-82
2022/06/07 11:54:54;;;;;;;0.30;0.30;;;;;;;20.69;53.17;100705.19;5109939;28;20053;-81
2022/06/07 11:57:56;;;;;;;0.20;0.20;;;;;;;20.48;54.62;100717.34;5074453;28;20097;-80
2022/06/07 12:00:29;;;;;;;1.35;0.50;;;;;;;20.52;54.27;100714.34;5095454;28;20040;-81
2022/06/07 12:03:03;;;;;;;0.80;0.70;;;;;;;20.49;54.56;100719.06;5101183;28;20141;-81
2022/06/07 12:06:09;;;;;;;0.20;0.20;;;;;;;20.35;56.54;100712.88;5120822;28;20055;-81
2022/06/07 12:08:57;;;;;;;0.88;0.57;;;;;;;20.35;56.92;100706.66;5089902;28;20078;-78
2022/06/07 12:11:32;;;;;;;0.20;0.20;;;;;;;20.28;57.30;100711.59;5112303;28;20042;-78
2022/06/07 12:14:10;;;;;;;0.40;0.40;;;;;;;20.12;57.94;100706.44;5120907;28;20038;-80
2022/06/07 12:16:44;;;;;;;0.20;0.20;;;;;;;20.24;56.38;100712.75;5096943;28;20448;-82
2022/06/07 12:19:20;;;;;;;0.50;0.50;;;;;;;20.34;56.22;100705.84;5117394;28;20057;-79
2022/06/07 12:21:56;;;;;;;0.40;0.38;;;;;;;20.13;57.03;100709.00;5111128;28;20040;-80
2022/06/07 12:24:36;;;;;;;0.47;0.47;;;;;;;20.40;56.09;100710.72;5116176;28;20057;-82
2022/06/07 12:30:54;;;;;;;13.20;2.50;;;;;;;20.52;55.71;100708.19;5130805;28;20035;-81
2022/06/07 12:33:35;;;;;;;0.82;0.82;;;;;;;20.48;56.43;100706.69;5101139;29;20584;-84
2022/06/07 12:36:21;;;;;;;2.35;2.20;;;;;;;20.61;55.94;100704.88;5121292;28;20054;-81
2022/06/07 12:38:52;;;;;;;0.85;0.85;;;;;;;20.69;55.55;100704.34;5108555;28;20034;-81
2022/06/07 12:41:25;;;;;;;0.65;0.65;;;;;;;20.87;55.83;100711.06;5136110;28;20031;-79